createdAt,value
2018-12-17T00:01:08.810Z,46.67
2018-12-17T00:05:53.918Z,65.80
2018-12-17T00:10:38.761Z,53.47
2018-12-17T00:15:23.583Z,50.93
2018-12-17T00:20:09.474Z,46.70
2018-12-17T00:24:54.324Z,46.87
2018-12-17T00:29:39.096Z,55.67
2018-12-17T00:34:23.918Z,70.50
2018-12-17T00:39:09.087Z,77.03
2018-12-17T00:43:53.959Z,74.50
2018-12-17T00:48:39.136Z,70.80
2018-12-17T00:53:23.951Z,59.73
2018-12-17T00:58:14.975Z,47.97
2018-12-17T01:02:55.551Z,39.87
2018-12-17T01:07:40.346Z,36.67
2018-12-17T01:12:25.174Z,48.67
2018-12-17T01:17:10.039Z,35.70
2018-12-17T01:21:55.023Z,42.50
2018-12-17T01:26:39.914Z,35.57
2018-12-17T01:31:24.778Z,40.30
2018-12-17T01:36:09.613Z,52.23
2018-12-17T01:40:54.439Z,68.73
2018-12-17T01:45:39.335Z,39.67
2018-12-17T01:50:24.091Z,42.63
2018-12-17T01:55:09.011Z,68.57
2018-12-17T01:59:53.818Z,32.37
2018-12-17T02:04:38.663Z,37.27
2018-12-17T02:09:23.423Z,31.30
2018-12-17T02:14:08.231Z,41.67
2018-12-17T02:18:53.093Z,57.80
2018-12-17T02:23:37.878Z,54.97
2018-12-17T02:28:22.660Z,59.13
2018-12-17T02:33:07.447Z,51.33
2018-12-17T02:37:52.207Z,44.53
2018-12-17T02:42:37.052Z,42.93
2018-12-17T02:47:21.857Z,57.50
2018-12-17T02:52:06.732Z,59.17
2018-12-17T02:56:51.523Z,72.83
2018-12-17T03:01:36.362Z,71.77
2018-12-17T03:06:21.195Z,80.27
2018-12-17T03:11:05.965Z,65.27
2018-12-17T03:15:50.811Z,53.97
2018-12-17T03:20:35.655Z,55.50
2018-12-17T03:25:20.429Z,46.50
2018-12-17T03:30:06.281Z,46.73
2018-12-17T03:34:51.072Z,35.00
2018-12-17T03:39:35.841Z,34.30
2018-12-17T03:44:20.606Z,38.20
2018-12-17T03:49:05.968Z,33.53
2018-12-17T03:53:50.782Z,38.03
2018-12-17T03:58:35.531Z,43.97
2018-12-17T04:03:22.181Z,50.67
2018-12-17T04:08:07.407Z,43.43
2018-12-17T04:12:52.276Z,54.10
2018-12-17T04:17:37.038Z,60.80
2018-12-17T04:22:21.875Z,72.10
2018-12-17T04:27:06.700Z,99.00
2018-12-17T04:31:51.546Z,87.87
2018-12-17T04:36:36.386Z,97.57
2018-12-17T04:41:21.187Z,126.43
2018-12-17T04:46:07.194Z,111.17
2018-12-17T04:50:52.154Z,108.27
2018-12-17T04:55:36.947Z,102.70
2018-12-17T05:00:21.705Z,98.93
2018-12-17T05:05:06.924Z,84.53
2018-12-17T05:09:51.818Z,73.23
2018-12-17T05:14:36.575Z,73.20
2018-12-17T05:19:21.460Z,63.83
2018-12-17T05:24:06.171Z,68.27
2018-12-17T05:28:50.906Z,126.17
2018-12-17T05:33:35.679Z,114.43
2018-12-17T05:38:20.557Z,119.20
2018-12-17T05:43:05.380Z,169.83
2018-12-17T05:47:50.202Z,117.27
2018-12-17T05:52:34.977Z,122.27
2018-12-17T05:57:20.012Z,108.43
2018-12-17T06:02:05.045Z,107.93
2018-12-17T06:06:49.877Z,118.10
2018-12-17T06:11:35.177Z,95.70
2018-12-17T06:16:20.289Z,109.07
2018-12-17T06:21:05.408Z,118.00
2018-12-17T06:25:50.207Z,99.30
2018-12-17T06:30:35.098Z,97.57
2018-12-17T06:35:19.959Z,119.37
2018-12-17T06:40:10.132Z,114.33
2018-12-17T06:44:52.462Z,103.03
2018-12-17T06:49:37.343Z,92.03
2018-12-17T06:54:22.990Z,73.20
2018-12-17T06:59:07.946Z,74.37
2018-12-17T07:03:52.857Z,66.63
2018-12-17T07:08:37.739Z,74.27
2018-12-17T07:13:22.599Z,91.00
2018-12-17T07:18:07.548Z,99.97
2018-12-17T07:22:52.367Z,89.67
2018-12-17T07:27:37.183Z,104.87
2018-12-17T07:32:22.097Z,150.70
2018-12-17T07:37:07.071Z,125.63
2018-12-17T07:41:53.232Z,91.73
2018-12-17T07:46:38.064Z,85.17
2018-12-17T07:51:22.949Z,86.73
2018-12-17T07:56:07.838Z,61.40
2018-12-17T08:00:52.810Z,56.77
2018-12-17T08:05:37.574Z,55.43
2018-12-17T08:10:22.392Z,60.30
2018-12-17T08:15:07.296Z,59.67
2018-12-17T08:19:52.337Z,53.60
2018-12-17T08:24:37.256Z,49.90
2018-12-17T08:29:22.187Z,253.03
2018-12-17T08:34:07.015Z,127.47
2018-12-17T08:38:51.870Z,66.03
2018-12-17T08:43:36.715Z,55.03
2018-12-17T08:48:21.487Z,203.60
2018-12-17T08:53:06.322Z,65.10
2018-12-17T08:57:51.128Z,68.37
2018-12-17T09:02:35.977Z,64.00
2018-12-17T09:07:20.751Z,66.07
2018-12-17T09:12:05.568Z,57.73
2018-12-17T09:16:50.327Z,62.27
2018-12-17T09:21:35.123Z,51.80
2018-12-17T09:26:19.957Z,46.93
2018-12-17T09:31:04.768Z,43.33
2018-12-17T09:35:49.646Z,38.13
2018-12-17T09:40:34.473Z,37.10
2018-12-17T09:45:19.397Z,35.23
2018-12-17T09:50:04.627Z,38.10
2018-12-17T09:54:49.495Z,32.90
2018-12-17T09:59:34.314Z,33.53
2018-12-17T10:04:19.465Z,34.37
2018-12-17T10:09:06.100Z,38.87
2018-12-17T10:13:50.915Z,36.03
2018-12-17T10:18:37.054Z,40.10
2018-12-17T10:23:22.029Z,34.27
2018-12-17T10:28:06.811Z,36.30
2018-12-17T10:32:51.592Z,44.13
2018-12-17T10:37:36.378Z,46.30
2018-12-17T10:42:21.261Z,44.03
2018-12-17T10:47:06.053Z,47.30
2018-12-17T10:51:50.822Z,47.83
2018-12-17T10:56:35.657Z,43.07
2018-12-17T11:01:25.567Z,40.80
2018-12-17T11:06:14.866Z,36.87
2018-12-17T11:10:59.884Z,42.33
2018-12-17T11:15:44.696Z,37.93
2018-12-17T11:20:29.525Z,36.70
2018-12-17T11:25:14.392Z,28.90
2018-12-17T11:29:59.263Z,24.73
2018-12-17T11:34:44.115Z,32.43
2018-12-17T11:39:29.061Z,29.30
2018-12-17T11:44:13.915Z,31.80
2018-12-17T11:48:58.840Z,25.60
2018-12-17T11:53:43.646Z,21.43
2018-12-17T11:58:28.605Z,24.77
2018-12-17T12:03:13.453Z,24.70
2018-12-17T12:07:58.318Z,27.30
2018-12-17T12:12:43.101Z,38.67
2018-12-17T12:17:27.947Z,37.47
2018-12-17T12:22:12.821Z,32.20
2018-12-17T12:26:57.676Z,20.73
2018-12-17T12:31:42.619Z,21.50
2018-12-17T12:36:27.443Z,21.83
2018-12-17T12:41:12.348Z,29.77
2018-12-17T12:45:57.167Z,30.60
2018-12-17T12:50:41.978Z,30.13
2018-12-17T12:55:26.808Z,28.73
2018-12-17T13:00:13.834Z,21.70
2018-12-17T13:04:58.695Z,26.43
2018-12-17T13:09:43.534Z,28.20
2018-12-17T13:14:28.413Z,30.40
2018-12-17T13:19:13.284Z,24.93
2018-12-17T13:23:58.088Z,23.83
2018-12-17T13:28:42.995Z,34.33
2018-12-17T13:33:28.181Z,29.40
2018-12-17T13:38:13.774Z,37.83
2018-12-17T13:42:59.927Z,39.03
2018-12-17T13:47:45.181Z,33.07
2018-12-17T13:52:35.405Z,29.60
2018-12-17T13:57:20.261Z,36.40
2018-12-17T14:02:05.521Z,26.27
2018-12-17T14:06:50.728Z,32.00
2018-12-17T14:11:35.722Z,36.83
2018-12-17T14:16:24.814Z,31.80
2018-12-17T14:21:15.024Z,30.90
2018-12-17T14:26:00.278Z,33.17
2018-12-17T14:30:45.239Z,29.87
2018-12-17T14:35:30.186Z,45.00
2018-12-17T14:40:15.018Z,48.23
2018-12-17T14:45:00.048Z,53.70
2018-12-17T14:49:44.942Z,46.63
2018-12-17T14:54:29.933Z,51.97
2018-12-17T14:59:14.781Z,48.10
2018-12-17T15:03:59.646Z,38.60
2018-12-17T15:08:44.469Z,30.57
2018-12-17T15:13:29.275Z,31.90
2018-12-17T15:18:14.093Z,38.83
2018-12-17T15:22:58.992Z,42.83
2018-12-17T15:27:43.918Z,38.93
2018-12-17T15:32:28.735Z,42.47
2018-12-17T15:37:13.730Z,45.07
2018-12-17T15:41:58.725Z,38.93
2018-12-17T15:46:43.589Z,39.17
2018-12-17T15:51:28.457Z,41.10
2018-12-17T15:56:13.389Z,43.30
2018-12-17T16:00:58.253Z,51.17
2018-12-17T16:05:43.138Z,45.77
2018-12-17T16:10:27.980Z,50.23
2018-12-17T16:15:12.849Z,50.03
2018-12-17T16:19:57.773Z,52.03
2018-12-17T16:24:42.665Z,54.30
2018-12-17T16:29:27.539Z,53.53
2018-12-17T16:34:12.484Z,82.77
2018-12-17T16:38:57.401Z,64.60
2018-12-17T16:43:42.422Z,69.97
2018-12-17T16:48:27.402Z,94.57
2018-12-17T16:53:12.289Z,82.27
2018-12-17T16:57:57.223Z,94.37
2018-12-17T17:02:42.045Z,68.60
2018-12-17T17:07:27.039Z,95.37
2018-12-17T17:12:12.080Z,114.87
2018-12-17T17:16:57.016Z,114.20
2018-12-17T17:21:41.896Z,109.70
2018-12-17T17:26:26.751Z,81.13
2018-12-17T17:31:11.703Z,117.40
2018-12-17T17:35:56.715Z,85.43
2018-12-17T17:40:41.644Z,85.97
2018-12-17T17:45:26.498Z,77.43
2018-12-17T17:50:11.881Z,67.67
2018-12-17T17:54:57.026Z,85.83
2018-12-17T17:59:41.921Z,68.67
2018-12-17T18:04:27.004Z,75.50
2018-12-17T18:09:12.264Z,72.37
2018-12-17T18:13:57.467Z,74.37
2018-12-17T18:18:43.031Z,87.47
2018-12-17T18:23:28.197Z,50.87
2018-12-17T18:28:13.402Z,43.03
2018-12-17T18:32:58.495Z,52.60
2018-12-17T18:37:43.740Z,113.10
2018-12-17T18:42:29.346Z,73.67
2018-12-17T18:47:14.558Z,92.83
2018-12-17T18:51:59.508Z,57.60
2018-12-17T18:56:44.767Z,78.93
2018-12-17T19:01:29.843Z,101.97
2018-12-17T19:06:14.794Z,75.17
2018-12-17T19:10:59.663Z,103.77
2018-12-17T19:15:44.945Z,41.80
2018-12-17T19:20:29.845Z,121.13
2018-12-17T19:25:15.285Z,85.60
2018-12-17T19:30:00.413Z,91.20
2018-12-17T19:34:45.212Z,92.70
2018-12-17T19:39:30.387Z,124.93
2018-12-17T19:44:15.334Z,124.33
2018-12-17T19:49:00.366Z,97.43
2018-12-17T19:53:45.495Z,90.33
2018-12-17T19:58:30.513Z,83.87
2018-12-17T20:03:15.689Z,81.80
2018-12-17T20:08:00.918Z,79.57
2018-12-17T20:12:46.134Z,73.33
2018-12-17T20:17:31.522Z,65.33
2018-12-17T20:22:16.845Z,53.43
2018-12-17T20:27:01.946Z,65.97
2018-12-17T20:31:46.956Z,62.37
2018-12-17T20:36:31.923Z,52.70
2018-12-17T20:41:18.087Z,52.87
2018-12-17T20:46:03.293Z,43.00
2018-12-17T20:50:48.469Z,58.00
2018-12-17T20:55:33.485Z,51.97
2018-12-17T21:00:18.945Z,48.50
2018-12-17T21:05:04.328Z,40.30
2018-12-17T21:09:49.290Z,48.53
2018-12-17T21:14:34.272Z,43.07
2018-12-17T21:19:19.269Z,35.50
2018-12-17T21:24:05.202Z,43.40
2018-12-17T21:28:50.458Z,39.77
2018-12-17T21:33:35.566Z,35.13
2018-12-17T21:38:20.601Z,39.10
2018-12-17T21:43:05.535Z,42.37
2018-12-17T21:47:50.403Z,41.60
2018-12-17T21:52:35.481Z,38.47
2018-12-17T21:57:20.455Z,39.97
2018-12-17T22:02:05.509Z,32.47
2018-12-17T22:06:50.347Z,36.43
2018-12-17T22:11:35.365Z,36.93
2018-12-17T22:16:20.362Z,38.40
2018-12-17T22:21:05.383Z,41.27
2018-12-17T22:25:50.263Z,41.57
2018-12-17T22:30:35.276Z,37.93
2018-12-17T22:35:20.145Z,36.97
2018-12-17T22:40:05.877Z,37.13
2018-12-17T22:44:50.862Z,39.17
2018-12-17T22:49:35.746Z,35.00
2018-12-17T22:54:20.690Z,40.73
2018-12-17T22:59:05.620Z,40.00
2018-12-17T23:03:50.663Z,37.77
2018-12-17T23:08:38.278Z,28.97
2018-12-17T23:13:33.956Z,30.30
2018-12-17T23:18:17.526Z,28.50
2018-12-17T23:23:02.468Z,36.77
2018-12-17T23:27:50.555Z,56.77
2018-12-17T23:32:37.202Z,41.13
2018-12-17T23:37:22.374Z,77.20
2018-12-17T23:42:07.529Z,44.13
2018-12-17T23:46:52.494Z,37.63
2018-12-17T23:51:37.322Z,35.83
2018-12-17T23:56:22.321Z,37.87
